sensor_id;sensor_type;location;lat;lon;timestamp;P1;durP1;ratioP1;P2;durP2;ratioP2
17171;SDS011;8701;50.150;8.756;2023-07-28T00:00:29;2.80;;;2.60;;
17171;SDS011;8701;50.150;8.756;2023-07-28T00:04:31;3.20;;;2.30;;
17171;SDS011;8701;50.150;8.756;2023-07-28T00:08:35;4.30;;;2.30;;
17171;SDS011;8701;50.150;8.756;2023-07-28T00:12:37;2.37;;;2.17;;
17171;SDS011;8701;50.150;8.756;2023-07-28T00:16:41;3.97;;;2.53;;
17171;SDS011;8701;50.150;8.756;2023-07-28T00:20:43;2.50;;;2.30;;
17171;SDS011;8701;50.150;8.756;2023-07-28T00:24:45;2.90;;;2.67;;
17171;SDS011;8701;50.150;8.756;2023-07-28T00:28:47;2.40;;;2.20;;
17171;SDS011;8701;50.150;8.756;2023-07-28T00:32:51;2.80;;;2.53;;
17171;SDS011;8701;50.150;8.756;2023-07-28T00:36:53;3.87;;;2.07;;
17171;SDS011;8701;50.150;8.756;2023-07-28T00:40:55;5.93;;;2.30;;
17171;SDS011;8701;50.150;8.756;2023-07-28T00:44:59;2.27;;;2.07;;
17171;SDS011;8701;50.150;8.756;2023-07-28T00:49:03;3.13;;;2.10;;
17171;SDS011;8701;50.150;8.756;2023-07-28T00:53:05;5.97;;;2.37;;
17171;SDS011;8701;50.150;8.756;2023-07-28T00:57:07;5.40;;;3.07;;
17171;SDS011;8701;50.150;8.756;2023-07-28T01:01:10;4.30;;;2.70;;
17171;SDS011;8701;50.150;8.756;2023-07-28T01:05:13;4.03;;;2.50;;
17171;SDS011;8701;50.150;8.756;2023-07-28T01:09:16;3.47;;;2.57;;
17171;SDS011;8701;50.150;8.756;2023-07-28T01:13:22;4.37;;;2.37;;
17171;SDS011;8701;50.150;8.756;2023-07-28T01:17:24;2.57;;;2.37;;
17171;SDS011;8701;50.150;8.756;2023-07-28T01:21:29;2.80;;;2.20;;
17171;SDS011;8701;50.150;8.756;2023-07-28T01:25:36;2.80;;;2.50;;
17171;SDS011;8701;50.150;8.756;2023-07-28T01:29:50;3.97;;;2.57;;
17171;SDS011;8701;50.150;8.756;2023-07-28T01:33:52;3.73;;;2.80;;
17171;SDS011;8701;50.150;8.756;2023-07-28T01:37:54;2.97;;;2.67;;
17171;SDS011;8701;50.150;8.756;2023-07-28T01:41:56;3.30;;;2.80;;
17171;SDS011;8701;50.150;8.756;2023-07-28T01:46:00;3.63;;;2.80;;
17171;SDS011;8701;50.150;8.756;2023-07-28T01:50:02;3.70;;;2.70;;
17171;SDS011;8701;50.150;8.756;2023-07-28T01:54:05;3.90;;;3.20;;
17171;SDS011;8701;50.150;8.756;2023-07-28T01:58:07;3.70;;;3.10;;
17171;SDS011;8701;50.150;8.756;2023-07-28T02:02:11;4.17;;;3.20;;
17171;SDS011;8701;50.150;8.756;2023-07-28T02:06:13;5.40;;;3.13;;
17171;SDS011;8701;50.150;8.756;2023-07-28T02:10:15;4.47;;;3.23;;
17171;SDS011;8701;50.150;8.756;2023-07-28T02:14:18;4.53;;;3.60;;
17171;SDS011;8701;50.150;8.756;2023-07-28T02:18:22;3.40;;;3.10;;
17171;SDS011;8701;50.150;8.756;2023-07-28T02:22:24;4.10;;;3.53;;
17171;SDS011;8701;50.150;8.756;2023-07-28T02:26:26;4.60;;;3.50;;
17171;SDS011;8701;50.150;8.756;2023-07-28T02:30:29;3.53;;;3.23;;
17171;SDS011;8701;50.150;8.756;2023-07-28T02:34:32;4.70;;;2.73;;
17171;SDS011;8701;50.150;8.756;2023-07-28T02:38:35;3.67;;;3.30;;
17171;SDS011;8701;50.150;8.756;2023-07-28T02:42:37;4.40;;;2.80;;
17171;SDS011;8701;50.150;8.756;2023-07-28T02:46:39;3.23;;;2.93;;
17171;SDS011;8701;50.150;8.756;2023-07-28T02:50:46;4.33;;;3.10;;
17171;SDS011;8701;50.150;8.756;2023-07-28T02:54:49;3.53;;;3.20;;
17171;SDS011;8701;50.150;8.756;2023-07-28T02:58:51;3.63;;;3.13;;
17171;SDS011;8701;50.150;8.756;2023-07-28T03:02:53;4.00;;;2.77;;
17171;SDS011;8701;50.150;8.756;2023-07-28T03:06:57;3.07;;;2.77;;
17171;SDS011;8701;50.150;8.756;2023-07-28T03:11:00;2.90;;;2.70;;
17171;SDS011;8701;50.150;8.756;2023-07-28T03:15:03;5.40;;;2.97;;
17171;SDS011;8701;50.150;8.756;2023-07-28T03:19:06;3.40;;;2.83;;
17171;SDS011;8701;50.150;8.756;2023-07-28T03:23:09;3.90;;;2.80;;
17171;SDS011;8701;50.150;8.756;2023-07-28T03:27:12;3.53;;;3.03;;
17171;SDS011;8701;50.150;8.756;2023-07-28T03:31:14;3.17;;;2.87;;
17171;SDS011;8701;50.150;8.756;2023-07-28T03:35:16;3.40;;;3.10;;
17171;SDS011;8701;50.150;8.756;2023-07-28T03:39:27;4.40;;;2.90;;
17171;SDS011;8701;50.150;8.756;2023-07-28T03:43:30;3.97;;;3.03;;
17171;SDS011;8701;50.150;8.756;2023-07-28T03:47:32;4.40;;;2.70;;
17171;SDS011;8701;50.150;8.756;2023-07-28T03:51:34;3.63;;;2.80;;
17171;SDS011;8701;50.150;8.756;2023-07-28T03:55:38;3.60;;;2.97;;
17171;SDS011;8701;50.150;8.756;2023-07-28T03:59:40;4.70;;;2.93;;
17171;SDS011;8701;50.150;8.756;2023-07-28T04:03:43;6.57;;;3.60;;
17171;SDS011;8701;50.150;8.756;2023-07-28T04:07:45;5.53;;;3.30;;
17171;SDS011;8701;50.150;8.756;2023-07-28T04:11:48;4.63;;;3.83;;
17171;SDS011;8701;50.150;8.756;2023-07-28T04:15:50;6.30;;;3.13;;
17171;SDS011;8701;50.150;8.756;2023-07-28T04:19:53;4.13;;;3.10;;
17171;SDS011;8701;50.150;8.756;2023-07-28T04:23:55;3.87;;;3.57;;
17171;SDS011;8701;50.150;8.756;2023-07-28T04:27:59;3.67;;;3.33;;
17171;SDS011;8701;50.150;8.756;2023-07-28T04:32:01;4.63;;;2.70;;
17171;SDS011;8701;50.150;8.756;2023-07-28T04:36:07;2.80;;;2.37;;
17171;SDS011;8701;50.150;8.756;2023-07-28T04:40:09;4.77;;;2.80;;
17171;SDS011;8701;50.150;8.756;2023-07-28T04:44:14;8.23;;;2.60;;
17171;SDS011;8701;50.150;8.756;2023-07-28T04:48:18;3.67;;;3.00;;
17171;SDS011;8701;50.150;8.756;2023-07-28T04:52:21;3.00;;;2.70;;
17171;SDS011;8701;50.150;8.756;2023-07-28T04:56:48;3.80;;;3.03;;
17171;SDS011;8701;50.150;8.756;2023-07-28T05:00:55;3.30;;;2.70;;
17171;SDS011;8701;50.150;8.756;2023-07-28T05:04:57;3.63;;;2.90;;
17171;SDS011;8701;50.150;8.756;2023-07-28T05:08:59;3.53;;;2.30;;
17171;SDS011;8701;50.150;8.756;2023-07-28T05:13:09;4.63;;;2.80;;
17171;SDS011;8701;50.150;8.756;2023-07-28T05:17:15;3.87;;;2.80;;
17171;SDS011;8701;50.150;8.756;2023-07-28T05:21:44;4.73;;;2.57;;
17171;SDS011;8701;50.150;8.756;2023-07-28T05:25:48;7.40;;;3.10;;
17171;SDS011;8701;50.150;8.756;2023-07-28T05:29:50;3.37;;;2.70;;
17171;SDS011;8701;50.150;8.756;2023-07-28T05:33:54;3.30;;;2.40;;
17171;SDS011;8701;50.150;8.756;2023-07-28T05:37:56;3.83;;;2.60;;
17171;SDS011;8701;50.150;8.756;2023-07-28T05:41:59;2.60;;;2.40;;
17171;SDS011;8701;50.150;8.756;2023-07-28T05:46:01;3.17;;;2.87;;
17171;SDS011;8701;50.150;8.756;2023-07-28T05:50:09;2.70;;;2.23;;
17171;SDS011;8701;50.150;8.756;2023-07-28T05:54:12;2.20;;;2.10;;
17171;SDS011;8701;50.150;8.756;2023-07-28T05:58:15;4.47;;;2.63;;
17171;SDS011;8701;50.150;8.756;2023-07-28T06:02:17;12.90;;;3.00;;
17171;SDS011;8701;50.150;8.756;2023-07-28T06:06:26;5.13;;;2.60;;
17171;SDS011;8701;50.150;8.756;2023-07-28T06:10:28;4.27;;;2.93;;
17171;SDS011;8701;50.150;8.756;2023-07-28T06:14:30;5.20;;;2.97;;
17171;SDS011;8701;50.150;8.756;2023-07-28T06:18:34;5.37;;;3.13;;
17171;SDS011;8701;50.150;8.756;2023-07-28T06:22:46;3.53;;;2.90;;
17171;SDS011;8701;50.150;8.756;2023-07-28T06:26:48;3.00;;;2.70;;
17171;SDS011;8701;50.150;8.756;2023-07-28T06:30:53;2.40;;;2.23;;
17171;SDS011;8701;50.150;8.756;2023-07-28T06:34:55;2.30;;;2.10;;
17171;SDS011;8701;50.150;8.756;2023-07-28T06:38:59;2.03;;;1.90;;
17171;SDS011;8701;50.150;8.756;2023-07-28T06:43:02;3.13;;;2.27;;
17171;SDS011;8701;50.150;8.756;2023-07-28T06:47:04;8.77;;;4.20;;
17171;SDS011;8701;50.150;8.756;2023-07-28T06:51:07;2.60;;;2.40;;
17171;SDS011;8701;50.150;8.756;2023-07-28T06:55:10;3.67;;;2.40;;
17171;SDS011;8701;50.150;8.756;2023-07-28T06:59:13;2.40;;;2.20;;
17171;SDS011;8701;50.150;8.756;2023-07-28T07:03:15;2.20;;;2.10;;
17171;SDS011;8701;50.150;8.756;2023-07-28T07:07:18;2.37;;;2.17;;
17171;SDS011;8701;50.150;8.756;2023-07-28T07:11:21;2.60;;;2.40;;
17171;SDS011;8701;50.150;8.756;2023-07-28T07:15:23;2.13;;;1.93;;
17171;SDS011;8701;50.150;8.756;2023-07-28T07:19:27;1.60;;;1.50;;
17171;SDS011;8701;50.150;8.756;2023-07-28T07:23:31;2.17;;;1.80;;
17171;SDS011;8701;50.150;8.756;2023-07-28T07:27:34;2.90;;;2.10;;
17171;SDS011;8701;50.150;8.756;2023-07-28T07:31:36;2.00;;;1.90;;
17171;SDS011;8701;50.150;8.756;2023-07-28T07:35:39;1.60;;;1.50;;
17171;SDS011;8701;50.150;8.756;2023-07-28T07:39:41;3.10;;;1.77;;
17171;SDS011;8701;50.150;8.756;2023-07-28T07:43:45;1.80;;;1.67;;
17171;SDS011;8701;50.150;8.756;2023-07-28T07:47:48;1.57;;;1.47;;
17171;SDS011;8701;50.150;8.756;2023-07-28T07:51:50;1.57;;;1.40;;
17171;SDS011;8701;50.150;8.756;2023-07-28T07:55:52;1.33;;;1.20;;
17171;SDS011;8701;50.150;8.756;2023-07-28T07:59:57;1.50;;;1.40;;
17171;SDS011;8701;50.150;8.756;2023-07-28T08:03:59;5.47;;;1.67;;
17171;SDS011;8701;50.150;8.756;2023-07-28T08:08:02;1.80;;;1.70;;
17171;SDS011;8701;50.150;8.756;2023-07-28T08:12:06;2.23;;;1.53;;
17171;SDS011;8701;50.150;8.756;2023-07-28T08:16:10;1.40;;;1.30;;
17171;SDS011;8701;50.150;8.756;2023-07-28T08:20:12;1.30;;;1.10;;
17171;SDS011;8701;50.150;8.756;2023-07-28T08:24:15;2.20;;;1.30;;
17171;SDS011;8701;50.150;8.756;2023-07-28T08:28:18;1.23;;;1.13;;
17171;SDS011;8701;50.150;8.756;2023-07-28T08:32:21;1.40;;;1.30;;
17171;SDS011;8701;50.150;8.756;2023-07-28T08:36:23;1.50;;;1.40;;
17171;SDS011;8701;50.150;8.756;2023-07-28T08:40:26;3.60;;;1.40;;
17171;SDS011;8701;50.150;8.756;2023-07-28T08:44:29;1.40;;;1.30;;
17171;SDS011;8701;50.150;8.756;2023-07-28T08:48:34;2.80;;;1.63;;
17171;SDS011;8701;50.150;8.756;2023-07-28T08:52:36;1.93;;;1.30;;
17171;SDS011;8701;50.150;8.756;2023-07-28T08:56:38;1.00;;;1.00;;
17171;SDS011;8701;50.150;8.756;2023-07-28T09:00:41;4.87;;;1.10;;
17171;SDS011;8701;50.150;8.756;2023-07-28T09:04:46;1.50;;;1.20;;
17171;SDS011;8701;50.150;8.756;2023-07-28T09:08:49;3.63;;;1.00;;
17171;SDS011;8701;50.150;8.756;2023-07-28T09:12:52;1.20;;;1.10;;
17171;SDS011;8701;50.150;8.756;2023-07-28T09:16:54;1.10;;;1.00;;
17171;SDS011;8701;50.150;8.756;2023-07-28T09:20:58;1.07;;;0.97;;
17171;SDS011;8701;50.150;8.756;2023-07-28T09:25:00;1.33;;;1.00;;
17171;SDS011;8701;50.150;8.756;2023-07-28T09:29:14;1.90;;;1.57;;
17171;SDS011;8701;50.150;8.756;2023-07-28T09:33:28;5.03;;;1.00;;
17171;SDS011;8701;50.150;8.756;2023-07-28T09:37:33;3.43;;;1.00;;
17171;SDS011;8701;50.150;8.756;2023-07-28T09:41:36;2.30;;;1.10;;
17171;SDS011;8701;50.150;8.756;2023-07-28T09:45:38;0.90;;;0.90;;
17171;SDS011;8701;50.150;8.756;2023-07-28T09:49:41;1.20;;;1.10;;
17171;SDS011;8701;50.150;8.756;2023-07-28T09:53:52;1.27;;;1.00;;
17171;SDS011;8701;50.150;8.756;2023-07-28T09:57:58;1.43;;;0.90;;
17171;SDS011;8701;50.150;8.756;2023-07-28T10:02:06;1.10;;;1.00;;
17171;SDS011;8701;50.150;8.756;2023-07-28T10:06:09;1.23;;;1.00;;
17171;SDS011;8701;50.150;8.756;2023-07-28T10:10:13;0.97;;;0.97;;
17171;SDS011;8701;50.150;8.756;2023-07-28T10:14:25;1.50;;;1.00;;
17171;SDS011;8701;50.150;8.756;2023-07-28T10:18:28;2.70;;;0.97;;
17171;SDS011;8701;50.150;8.756;2023-07-28T10:22:31;1.33;;;1.10;;
17171;SDS011;8701;50.150;8.756;2023-07-28T10:26:38;1.10;;;1.00;;
17171;SDS011;8701;50.150;8.756;2023-07-28T10:30:50;1.23;;;0.97;;
17171;SDS011;8701;50.150;8.756;2023-07-28T10:35:00;1.23;;;0.97;;
17171;SDS011;8701;50.150;8.756;2023-07-28T10:39:12;1.00;;;0.80;;
17171;SDS011;8701;50.150;8.756;2023-07-28T10:43:16;0.83;;;0.83;;
17171;SDS011;8701;50.150;8.756;2023-07-28T10:47:18;1.23;;;1.10;;
17171;SDS011;8701;50.150;8.756;2023-07-28T10:51:23;1.47;;;0.90;;
17171;SDS011;8701;50.150;8.756;2023-07-28T10:55:29;1.10;;;0.90;;
17171;SDS011;8701;50.150;8.756;2023-07-28T10:59:33;0.80;;;0.80;;
17171;SDS011;8701;50.150;8.756;2023-07-28T11:03:37;2.20;;;1.03;;
17171;SDS011;8701;50.150;8.756;2023-07-28T11:07:41;1.13;;;0.97;;
17171;SDS011;8701;50.150;8.756;2023-07-28T11:11:45;1.30;;;1.07;;
17171;SDS011;8701;50.150;8.756;2023-07-28T11:15:49;1.13;;;1.03;;
17171;SDS011;8701;50.150;8.756;2023-07-28T11:19:51;1.23;;;1.00;;
17171;SDS011;8701;50.150;8.756;2023-07-28T11:23:53;1.03;;;1.00;;
17171;SDS011;8701;50.150;8.756;2023-07-28T11:27:56;1.63;;;1.00;;
17171;SDS011;8701;50.150;8.756;2023-07-28T11:32:00;1.10;;;0.90;;
17171;SDS011;8701;50.150;8.756;2023-07-28T11:36:02;1.13;;;1.03;;
17171;SDS011;8701;50.150;8.756;2023-07-28T11:40:06;1.93;;;0.93;;
17171;SDS011;8701;50.150;8.756;2023-07-28T11:44:12;1.77;;;1.10;;
17171;SDS011;8701;50.150;8.756;2023-07-28T11:48:16;1.00;;;0.90;;
17171;SDS011;8701;50.150;8.756;2023-07-28T11:52:23;1.10;;;1.00;;
17171;SDS011;8701;50.150;8.756;2023-07-28T11:56:27;2.40;;;1.17;;
17171;SDS011;8701;50.150;8.756;2023-07-28T12:00:31;1.67;;;1.40;;
17171;SDS011;8701;50.150;8.756;2023-07-28T12:04:37;1.50;;;1.40;;
17171;SDS011;8701;50.150;8.756;2023-07-28T12:08:41;3.43;;;1.83;;
17171;SDS011;8701;50.150;8.756;2023-07-28T12:12:45;2.63;;;1.87;;
17171;SDS011;8701;50.150;8.756;2023-07-28T12:16:48;1.73;;;1.63;;
17171;SDS011;8701;50.150;8.756;2023-07-28T12:20:53;1.67;;;1.50;;
17171;SDS011;8701;50.150;8.756;2023-07-28T12:24:56;1.83;;;1.73;;
17171;SDS011;8701;50.150;8.756;2023-07-28T12:28:58;1.90;;;1.70;;
17171;SDS011;8701;50.150;8.756;2023-07-28T12:33:00;1.70;;;1.60;;
17171;SDS011;8701;50.150;8.756;2023-07-28T12:37:04;2.00;;;1.90;;
17171;SDS011;8701;50.150;8.756;2023-07-28T12:41:07;2.00;;;1.90;;
17171;SDS011;8701;50.150;8.756;2023-07-28T12:45:09;3.73;;;2.70;;
17171;SDS011;8701;50.150;8.756;2023-07-28T12:49:12;5.53;;;2.30;;
17171;SDS011;8701;50.150;8.756;2023-07-28T12:53:16;2.07;;;1.97;;
17171;SDS011;8701;50.150;8.756;2023-07-28T12:57:19;2.50;;;2.00;;
17171;SDS011;8701;50.150;8.756;2023-07-28T13:01:21;2.10;;;2.00;;
17171;SDS011;8701;50.150;8.756;2023-07-28T13:05:24;2.10;;;1.93;;
17171;SDS011;8701;50.150;8.756;2023-07-28T13:09:27;2.00;;;1.90;;
17171;SDS011;8701;50.150;8.756;2023-07-28T13:13:29;1.80;;;1.70;;
17171;SDS011;8701;50.150;8.756;2023-07-28T13:17:33;2.10;;;1.97;;
17171;SDS011;8701;50.150;8.756;2023-07-28T13:21:35;1.90;;;1.80;;
17171;SDS011;8701;50.150;8.756;2023-07-28T13:25:39;2.37;;;2.17;;
17171;SDS011;8701;50.150;8.756;2023-07-28T13:29:41;1.83;;;1.73;;
17171;SDS011;8701;50.150;8.756;2023-07-28T13:33:44;2.10;;;2.00;;
17171;SDS011;8701;50.150;8.756;2023-07-28T13:37:46;2.30;;;2.00;;
17171;SDS011;8701;50.150;8.756;2023-07-28T13:41:50;2.37;;;2.20;;
17171;SDS011;8701;50.150;8.756;2023-07-28T13:45:52;2.00;;;1.80;;
17171;SDS011;8701;50.150;8.756;2023-07-28T13:49:55;2.60;;;1.90;;
17171;SDS011;8701;50.150;8.756;2023-07-28T13:53:57;2.60;;;1.80;;
17171;SDS011;8701;50.150;8.756;2023-07-28T13:58:00;3.73;;;2.43;;
17171;SDS011;8701;50.150;8.756;2023-07-28T14:02:03;3.90;;;2.27;;
17171;SDS011;8701;50.150;8.756;2023-07-28T14:06:05;3.10;;;2.57;;
17171;SDS011;8701;50.150;8.756;2023-07-28T14:10:09;4.50;;;2.47;;
17171;SDS011;8701;50.150;8.756;2023-07-28T14:14:12;4.80;;;2.47;;
17171;SDS011;8701;50.150;8.756;2023-07-28T14:18:15;4.80;;;3.13;;
17171;SDS011;8701;50.150;8.756;2023-07-28T14:22:17;2.63;;;2.43;;
17171;SDS011;8701;50.150;8.756;2023-07-28T14:30:36;2.40;;;2.20;;
17171;SDS011;8701;50.150;8.756;2023-07-28T14:34:38;5.93;;;2.40;;
17171;SDS011;8701;50.150;8.756;2023-07-28T14:38:41;2.47;;;2.13;;
17171;SDS011;8701;50.150;8.756;2023-07-28T14:42:43;4.97;;;1.80;;
17171;SDS011;8701;50.150;8.756;2023-07-28T14:46:46;2.13;;;1.93;;
17171;SDS011;8701;50.150;8.756;2023-07-28T14:50:49;1.80;;;1.70;;
17171;SDS011;8701;50.150;8.756;2023-07-28T14:54:51;2.10;;;1.90;;
17171;SDS011;8701;50.150;8.756;2023-07-28T14:58:53;2.00;;;1.90;;
17171;SDS011;8701;50.150;8.756;2023-07-28T15:02:58;2.20;;;2.00;;
17171;SDS011;8701;50.150;8.756;2023-07-28T15:07:00;2.40;;;2.20;;
17171;SDS011;8701;50.150;8.756;2023-07-28T15:11:02;2.57;;;1.93;;
17171;SDS011;8701;50.150;8.756;2023-07-28T15:15:05;4.03;;;2.50;;
17171;SDS011;8701;50.150;8.756;2023-07-28T15:19:09;4.97;;;2.93;;
17171;SDS011;8701;50.150;8.756;2023-07-28T15:23:11;3.73;;;2.70;;
17171;SDS011;8701;50.150;8.756;2023-07-28T15:27:13;3.43;;;2.67;;
17171;SDS011;8701;50.150;8.756;2023-07-28T15:31:16;4.40;;;3.50;;
17171;SDS011;8701;50.150;8.756;2023-07-28T15:35:19;3.23;;;2.93;;
17171;SDS011;8701;50.150;8.756;2023-07-28T15:39:21;6.30;;;2.00;;
17171;SDS011;8701;50.150;8.756;2023-07-28T15:43:24;2.07;;;1.87;;
17171;SDS011;8701;50.150;8.756;2023-07-28T15:47:26;2.43;;;2.23;;
17171;SDS011;8701;50.150;8.756;2023-07-28T15:51:34;4.93;;;2.17;;
17171;SDS011;8701;50.150;8.756;2023-07-28T15:55:36;1.80;;;1.70;;
17171;SDS011;8701;50.150;8.756;2023-07-28T15:59:39;2.73;;;1.40;;
17171;SDS011;8701;50.150;8.756;2023-07-28T16:03:42;1.80;;;1.70;;
17171;SDS011;8701;50.150;8.756;2023-07-28T16:07:45;2.03;;;1.93;;
17171;SDS011;8701;50.150;8.756;2023-07-28T16:11:47;1.77;;;1.67;;
17171;SDS011;8701;50.150;8.756;2023-07-28T16:15:49;2.30;;;2.00;;
17171;SDS011;8701;50.150;8.756;2023-07-28T16:19:52;1.60;;;1.50;;
17171;SDS011;8701;50.150;8.756;2023-07-28T16:23:55;11.07;;;1.80;;
17171;SDS011;8701;50.150;8.756;2023-07-28T16:27:57;3.07;;;1.70;;
17171;SDS011;8701;50.150;8.756;2023-07-28T16:32:00;1.87;;;1.50;;
17171;SDS011;8701;50.150;8.756;2023-07-28T16:36:02;2.23;;;2.03;;
17171;SDS011;8701;50.150;8.756;2023-07-28T16:40:07;5.63;;;2.10;;
17171;SDS011;8701;50.150;8.756;2023-07-28T16:44:10;2.07;;;1.80;;
17171;SDS011;8701;50.150;8.756;2023-07-28T16:48:12;2.50;;;1.60;;
17171;SDS011;8701;50.150;8.756;2023-07-28T16:52:14;2.77;;;2.10;;
17171;SDS011;8701;50.150;8.756;2023-07-28T16:56:18;2.43;;;2.23;;
17171;SDS011;8701;50.150;8.756;2023-07-28T17:00:20;2.97;;;1.90;;
17171;SDS011;8701;50.150;8.756;2023-07-28T17:04:22;3.13;;;1.63;;
17171;SDS011;8701;50.150;8.756;2023-07-28T17:08:25;1.40;;;1.30;;
17171;SDS011;8701;50.150;8.756;2023-07-28T17:12:28;1.87;;;1.40;;
17171;SDS011;8701;50.150;8.756;2023-07-28T17:16:31;1.60;;;1.50;;
17171;SDS011;8701;50.150;8.756;2023-07-28T17:20:33;2.10;;;1.37;;
17171;SDS011;8701;50.150;8.756;2023-07-28T17:24:35;1.47;;;1.37;;
17171;SDS011;8701;50.150;8.756;2023-07-28T17:28:39;1.77;;;1.27;;
17171;SDS011;8701;50.150;8.756;2023-07-28T17:32:41;1.50;;;1.40;;
17171;SDS011;8701;50.150;8.756;2023-07-28T17:36:45;2.00;;;1.37;;
17171;SDS011;8701;50.150;8.756;2023-07-28T17:40:48;1.40;;;1.30;;
17171;SDS011;8701;50.150;8.756;2023-07-28T17:44:51;1.70;;;1.60;;
17171;SDS011;8701;50.150;8.756;2023-07-28T17:48:54;1.60;;;1.50;;
17171;SDS011;8701;50.150;8.756;2023-07-28T17:52:56;1.50;;;1.40;;
17171;SDS011;8701;50.150;8.756;2023-07-28T17:56:58;1.77;;;1.40;;
17171;SDS011;8701;50.150;8.756;2023-07-28T18:01:02;1.50;;;1.40;;
17171;SDS011;8701;50.150;8.756;2023-07-28T18:05:04;1.93;;;1.27;;
17171;SDS011;8701;50.150;8.756;2023-07-28T18:09:07;1.33;;;1.23;;
17171;SDS011;8701;50.150;8.756;2023-07-28T18:13:09;1.53;;;1.43;;
17171;SDS011;8701;50.150;8.756;2023-07-28T18:17:12;5.67;;;1.27;;
17171;SDS011;8701;50.150;8.756;2023-07-28T18:21:15;4.30;;;1.50;;
17171;SDS011;8701;50.150;8.756;2023-07-28T18:25:18;2.03;;;1.83;;
17171;SDS011;8701;50.150;8.756;2023-07-28T18:29:20;1.93;;;1.70;;
17171;SDS011;8701;50.150;8.756;2023-07-28T18:33:24;2.50;;;2.30;;
17171;SDS011;8701;50.150;8.756;2023-07-28T18:37:26;2.60;;;1.60;;
17171;SDS011;8701;50.150;8.756;2023-07-28T18:41:28;1.50;;;1.40;;
17171;SDS011;8701;50.150;8.756;2023-07-28T18:45:30;1.90;;;1.57;;
17171;SDS011;8701;50.150;8.756;2023-07-28T18:49:34;1.67;;;1.57;;
17171;SDS011;8701;50.150;8.756;2023-07-28T18:53:36;2.30;;;1.60;;
17171;SDS011;8701;50.150;8.756;2023-07-28T18:57:38;1.57;;;1.47;;
17171;SDS011;8701;50.150;8.756;2023-07-28T19:01:40;3.90;;;1.60;;
17171;SDS011;8701;50.150;8.756;2023-07-28T19:05:44;1.97;;;1.80;;
17171;SDS011;8701;50.150;8.756;2023-07-28T19:09:46;1.90;;;1.80;;
17171;SDS011;8701;50.150;8.756;2023-07-28T19:13:49;2.20;;;1.60;;
17171;SDS011;8701;50.150;8.756;2023-07-28T19:17:51;1.90;;;1.37;;
17171;SDS011;8701;50.150;8.756;2023-07-28T19:21:54;1.93;;;1.83;;
17171;SDS011;8701;50.150;8.756;2023-07-28T19:25:57;1.70;;;1.60;;
17171;SDS011;8701;50.150;8.756;2023-07-28T19:29:59;1.60;;;1.50;;
17171;SDS011;8701;50.150;8.756;2023-07-28T19:34:01;2.43;;;1.50;;
17171;SDS011;8701;50.150;8.756;2023-07-28T19:38:05;1.60;;;1.50;;
17171;SDS011;8701;50.150;8.756;2023-07-28T19:42:07;2.73;;;1.80;;
17171;SDS011;8701;50.150;8.756;2023-07-28T19:46:10;3.10;;;1.50;;
17171;SDS011;8701;50.150;8.756;2023-07-28T19:50:12;2.53;;;1.60;;
17171;SDS011;8701;50.150;8.756;2023-07-28T19:54:16;1.50;;;1.40;;
17171;SDS011;8701;50.150;8.756;2023-07-28T19:58:18;2.60;;;1.73;;
17171;SDS011;8701;50.150;8.756;2023-07-28T20:02:20;6.20;;;1.87;;
17171;SDS011;8701;50.150;8.756;2023-07-28T20:06:23;1.87;;;1.50;;
17171;SDS011;8701;50.150;8.756;2023-07-28T20:10:27;2.10;;;1.70;;
17171;SDS011;8701;50.150;8.756;2023-07-28T20:14:29;1.60;;;1.50;;
17171;SDS011;8701;50.150;8.756;2023-07-28T20:18:31;2.00;;;1.90;;
17171;SDS011;8701;50.150;8.756;2023-07-28T20:22:33;2.13;;;1.50;;
17171;SDS011;8701;50.150;8.756;2023-07-28T20:26:37;2.40;;;2.20;;
17171;SDS011;8701;50.150;8.756;2023-07-28T20:30:39;1.80;;;1.70;;
17171;SDS011;8701;50.150;8.756;2023-07-28T20:34:41;2.00;;;1.90;;
17171;SDS011;8701;50.150;8.756;2023-07-28T20:38:44;3.00;;;1.80;;
17171;SDS011;8701;50.150;8.756;2023-07-28T20:42:48;2.00;;;1.90;;
17171;SDS011;8701;50.150;8.756;2023-07-28T20:46:50;2.03;;;1.93;;
17171;SDS011;8701;50.150;8.756;2023-07-28T20:50:52;3.07;;;2.23;;
17171;SDS011;8701;50.150;8.756;2023-07-28T20:54:55;2.70;;;2.30;;
17171;SDS011;8701;50.150;8.756;2023-07-28T20:58:58;4.80;;;1.97;;
17171;SDS011;8701;50.150;8.756;2023-07-28T21:03:00;2.87;;;2.20;;
17171;SDS011;8701;50.150;8.756;2023-07-28T21:07:03;2.40;;;2.20;;
17171;SDS011;8701;50.150;8.756;2023-07-28T21:11:08;3.23;;;2.10;;
17171;SDS011;8701;50.150;8.756;2023-07-28T21:15:12;2.73;;;2.53;;
17171;SDS011;8701;50.150;8.756;2023-07-28T21:19:15;2.53;;;2.33;;
17171;SDS011;8701;50.150;8.756;2023-07-28T21:23:17;8.10;;;2.80;;
17171;SDS011;8701;50.150;8.756;2023-07-28T21:27:19;3.20;;;2.77;;
17171;SDS011;8701;50.150;8.756;2023-07-28T21:31:23;5.30;;;2.40;;
17171;SDS011;8701;50.150;8.756;2023-07-28T21:35:25;3.57;;;2.40;;
17171;SDS011;8701;50.150;8.756;2023-07-28T21:39:27;2.37;;;2.17;;
17171;SDS011;8701;50.150;8.756;2023-07-28T21:43:29;2.97;;;2.67;;
17171;SDS011;8701;50.150;8.756;2023-07-28T21:47:33;3.03;;;2.83;;
17171;SDS011;8701;50.150;8.756;2023-07-28T21:51:35;4.53;;;2.90;;
17171;SDS011;8701;50.150;8.756;2023-07-28T21:55:37;2.97;;;2.77;;
17171;SDS011;8701;50.150;8.756;2023-07-28T21:59:39;3.20;;;2.67;;
17171;SDS011;8701;50.150;8.756;2023-07-28T22:03:44;5.03;;;2.90;;
17171;SDS011;8701;50.150;8.756;2023-07-28T22:07:50;5.57;;;3.17;;
17171;SDS011;8701;50.150;8.756;2023-07-28T22:11:55;5.03;;;3.10;;
17171;SDS011;8701;50.150;8.756;2023-07-28T22:15:57;3.33;;;2.80;;
17171;SDS011;8701;50.150;8.756;2023-07-28T22:20:01;4.50;;;3.20;;
17171;SDS011;8701;50.150;8.756;2023-07-28T22:24:04;4.67;;;3.37;;
17171;SDS011;8701;50.150;8.756;2023-07-28T22:28:07;3.53;;;3.20;;
17171;SDS011;8701;50.150;8.756;2023-07-28T22:32:10;5.67;;;3.40;;
17171;SDS011;8701;50.150;8.756;2023-07-28T22:36:13;3.57;;;3.20;;
17171;SDS011;8701;50.150;8.756;2023-07-28T22:40:15;3.57;;;3.17;;
17171;SDS011;8701;50.150;8.756;2023-07-28T22:44:18;3.40;;;3.10;;
17171;SDS011;8701;50.150;8.756;2023-07-28T22:48:20;4.47;;;3.17;;
17171;SDS011;8701;50.150;8.756;2023-07-28T22:52:24;4.80;;;3.93;;
17171;SDS011;8701;50.150;8.756;2023-07-28T22:56:26;5.17;;;3.50;;
17171;SDS011;8701;50.150;8.756;2023-07-28T23:00:29;4.10;;;3.43;;
17171;SDS011;8701;50.150;8.756;2023-07-28T23:04:31;4.33;;;3.40;;
17171;SDS011;8701;50.150;8.756;2023-07-28T23:08:35;5.10;;;3.70;;
17171;SDS011;8701;50.150;8.756;2023-07-28T23:12:38;7.77;;;3.90;;
17171;SDS011;8701;50.150;8.756;2023-07-28T23:16:40;4.13;;;3.60;;
17171;SDS011;8701;50.150;8.756;2023-07-28T23:20:42;4.60;;;3.60;;
17171;SDS011;8701;50.150;8.756;2023-07-28T23:24:45;7.67;;;3.90;;
17171;SDS011;8701;50.150;8.756;2023-07-28T23:28:48;5.70;;;4.20;;
17171;SDS011;8701;50.150;8.756;2023-07-28T23:32:51;6.00;;;3.80;;
17171;SDS011;8701;50.150;8.756;2023-07-28T23:36:53;5.20;;;3.77;;
17171;SDS011;8701;50.150;8.756;2023-07-28T23:40:57;5.43;;;3.70;;
17171;SDS011;8701;50.150;8.756;2023-07-28T23:44:59;6.37;;;4.87;;
17171;SDS011;8701;50.150;8.756;2023-07-28T23:49:01;5.40;;;4.60;;
17171;SDS011;8701;50.150;8.756;2023-07-28T23:53:04;4.90;;;4.30;;
17171;SDS011;8701;50.150;8.756;2023-07-28T23:57:07;7.90;;;4.60;;
